Hikarimaru No.17 — JD2956 — position and weather

sailwx.info

Track history (hours):
 
Tides and Currents Weather Stations Pressure Air Temp Water Temp Dewpoint Dewpoint Depression Visibility Wind Speed Wind Dir Waves Ship Positions

Hikarimaru No.17

Last reported at 2018-Apr-28 06:02 UTC. Time now 2018-May-22 21:06 UTC.
Position N 34°07' E 132°45'.
Warning: this ship's position is 24 days out of date.

Length 105 m; draft 5.5 m.

Type: Tanker. MMSI: 431000984.

Date/timePositionNaut miles runAvg speedWind from/ knotsBaromVisibWave heightAir tempDewpointWater temp
2018-Apr-28 06:02N 34°07' E 132°45'312.1
2018-Apr-28 05:50N 34°06' E 132°43'412.4
2018-Apr-28 05:30N 34°04' E 132°38'612.3
2018-Apr-28 05:01N 34°02' E 132°31'713.1
2018-Apr-28 04:29N 34°07' E 132°25'4 0.8
2018-Apr-27 23:07N 34°11' E 132°26'0 2.4
2018-Apr-27 23:00N 34°11' E 132°26'5 9.4
2018-Apr-27 22:29N 34°06' E 132°26'3 0.5
2018-Apr-27 15:54N 34°05' E 132°29'2 0.5
2018-Apr-27 11:14N 34°03' E 132°30'3 9.3
2018-Apr-27 10:55N 34°03' E 132°34'511.4
2018-Apr-27 10:31N 34°03' E 132°40'9 0.8
2018-Apr-26 23:32N 34°03' E 132°50'0 5.5
2018-Apr-26 23:29N 34°03' E 132°50'3 3.7
2018-Apr-26 22:48N 34°05' E 132°52'7 0.4
2018-Apr-26 01:40N 34°05' E 132°43'212.3
2018-Apr-26 01:30N 34°04' E 132°40'612.2
2018-Apr-26 00:59N 34°02' E 132°33'611.7
2018-Apr-26 00:27N 34°05' E 132°26'613.2
2018-Apr-25 23:59N 34°08' E 132°20'612.3
2018-Apr-25 23:30N 34°13' E 132°16'0 0.5
2018-Apr-25 23:00N 34°13' E 132°16'0 0.0
2018-Apr-25 22:30N 34°13' E 132°16'0 0.0
2018-Apr-25 22:00N 34°13' E 132°16'0 0.0
2018-Apr-25 21:30N 34°13' E 132°16'0 0.0
2018-Apr-25 21:00N 34°13' E 132°16'0 0.0
2018-Apr-25 20:30N 34°13' E 132°16'0 0.0
2018-Apr-25 20:00N 34°13' E 132°16'0 0.0
2018-Apr-25 19:30N 34°13' E 132°16'0 0.0
2018-Apr-25 19:00N 34°13' E 132°16'0 0.0
2018-Apr-25 18:30N 34°13' E 132°16'0 0.0
2018-Apr-25 18:00N 34°13' E 132°16'0 0.0
2018-Apr-25 17:30N 34°13' E 132°16'0 0.1
2018-Apr-25 17:00N 34°13' E 132°16'0 0.0
2018-Apr-25 16:30N 34°13' E 132°16'0 0.0
2018-Apr-25 16:00N 34°13' E 132°16'0 0.0
2018-Apr-25 15:24N 34°13' E 132°16'0 0.0
2018-Apr-25 14:57N 34°13' E 132°16'0 0.0
2018-Apr-25 14:30N 34°13' E 132°16'0 0.0
2018-Apr-25 14:00N 34°13' E 132°16'0 0.0
2018-Apr-25 13:30N 34°13' E 132°16'0 0.0
2018-Apr-25 13:00N 34°13' E 132°16'0 0.0
2018-Apr-25 12:30N 34°13' E 132°16'0 0.0
2018-Apr-25 12:00N 34°13' E 132°16'0 0.0
2018-Apr-25 11:30N 34°13' E 132°16'0 0.0
2018-Apr-25 10:54N 34°13' E 132°16'0 0.0
2018-Apr-25 10:27N 34°13' E 132°16'0 0.1
2018-Apr-25 10:00N 34°13' E 132°16'0 0.0
2018-Apr-25 09:30N 34°13' E 132°16'0 0.0
2018-Apr-25 09:00N 34°13' E 132°16'0 0.0
2018-Apr-25 08:30N 34°13' E 132°16'0 0.0
2018-Apr-25 08:00N 34°13' E 132°16'0 0.0
2018-Apr-25 07:30N 34°13' E 132°16'0 0.0
2018-Apr-25 07:00N 34°13' E 132°16'0 0.0
2018-Apr-25 06:30N 34°13' E 132°16'0 0.0
2018-Apr-25 06:00N 34°13' E 132°16'0 0.0
2018-Apr-25 05:30N 34°13' E 132°16'0 0.1
2018-Apr-25 05:00N 34°13' E 132°16'0 0.1
2018-Apr-25 04:30N 34°13' E 132°16'0 0.2
2018-Apr-25 03:57N 34°13' E 132°16'0 0.0
2018-Apr-25 03:30N 34°13' E 132°16'0 0.0
2018-Apr-25 02:54N 34°13' E 132°16'0 0.1
2018-Apr-25 02:30N 34°13' E 132°16'0 0.0
2018-Apr-25 01:54N 34°13' E 132°16'0 0.1
2018-Apr-25 01:27N 34°13' E 132°16'0 0.0
2018-Apr-25 01:00N 34°13' E 132°16'0 0.0
2018-Apr-25 00:30N 34°13' E 132°16'0 0.0
2018-Apr-25 00:00N 34°13' E 132°16'0 0.0
2018-Apr-24 23:24N 34°13' E 132°16'0 0.0
2018-Apr-24 22:54N 34°13' E 132°16'0 0.1
2018-Apr-24 22:30N 34°13' E 132°16'0 0.0
2018-Apr-24 22:00N 34°13' E 132°16'0 0.0
2018-Apr-24 21:30N 34°13' E 132°16'0 0.0
2018-Apr-24 21:00N 34°13' E 132°16'0 0.0
2018-Apr-24 20:30N 34°13' E 132°16'0 0.0
2018-Apr-24 20:00N 34°13' E 132°16'0 0.0
2018-Apr-24 19:30N 34°13' E 132°16'0 0.0
2018-Apr-24 19:00N 34°13' E 132°16'0 0.1
2018-Apr-24 18:27N 34°13' E 132°16'0 0.0
2018-Apr-24 18:00N 34°13' E 132°16'0 0.0
2018-Apr-24 17:24N 34°13' E 132°16'0 0.0
2018-Apr-24 17:00N 34°13' E 132°16'0 0.0
2018-Apr-24 16:30N 34°13' E 132°16'0 0.0
2018-Apr-24 16:00N 34°13' E 132°16'0 0.1
2018-Apr-24 15:30N 34°13' E 132°16'0 0.0
2018-Apr-24 15:00N 34°13' E 132°16'0 0.1
2018-Apr-24 14:21N 34°13' E 132°16'0 0.1
2018-Apr-24 14:00N 34°13' E 132°16'0 0.1
2018-Apr-24 13:30N 34°13' E 132°16'0 0.0
2018-Apr-24 13:00N 34°13' E 132°16'0 0.1
2018-Apr-24 12:30N 34°13' E 132°16'0 0.0
2018-Apr-24 11:57N 34°13' E 132°16'0 0.1
2018-Apr-24 11:30N 34°13' E 132°16'0 0.1
2018-Apr-24 11:00N 34°13' E 132°16'0 0.0
2018-Apr-24 10:30N 34°13' E 132°16'0 0.1
2018-Apr-24 09:54N 34°13' E 132°16'0 0.0
2018-Apr-24 09:30N 34°13' E 132°16'0 0.0
2018-Apr-24 09:00N 34°13' E 132°16'0 0.0
2018-Apr-24 08:30N 34°13' E 132°16'0 0.0
2018-Apr-24 08:00N 34°13' E 132°16'0 0.1
2018-Apr-24 07:30N 34°13' E 132°16'0 0.0
2018-Apr-24 06:54N 34°13' E 132°16'0 0.0
2018-Apr-24 06:30N 34°13' E 132°16'0 0.0
2018-Apr-24 06:00N 34°13' E 132°16'0 0.2
2018-Apr-24 05:30N 34°13' E 132°16'0 0.0
2018-Apr-24 04:57N 34°13' E 132°16'0 0.0
2018-Apr-24 04:30N 34°13' E 132°16'0 0.0
2018-Apr-24 04:00N 34°13' E 132°16'0 0.0
2018-Apr-24 03:30N 34°13' E 132°16'0 0.0
2018-Apr-24 03:00N 34°13' E 132°16'0 0.0
2018-Apr-24 02:24N 34°13' E 132°16'0 0.0
2018-Apr-24 02:00N 34°13' E 132°16'0 0.0
2018-Apr-24 01:30N 34°13' E 132°16'0 0.0
2018-Apr-24 01:00N 34°13' E 132°16'0 0.0
2018-Apr-24 00:30N 34°13' E 132°16'0 0.0
2018-Apr-24 00:00N 34°13' E 132°16'0 0.0
2018-Apr-23 23:27N 34°13' E 132°16'0 0.0
2018-Apr-23 23:00N 34°13' E 132°16'0 0.0
2018-Apr-23 22:30N 34°13' E 132°16'0 0.0
2018-Apr-23 22:00N 34°13' E 132°16'0 0.0
2018-Apr-23 21:30N 34°13' E 132°16'0 0.0
2018-Apr-23 21:00N 34°13' E 132°16'0 0.0
2018-Apr-23 20:30N 34°13' E 132°16'0 0.0
2018-Apr-23 20:00N 34°13' E 132°16'0 0.0
2018-Apr-23 19:30N 34°13' E 132°16'0 0.1
2018-Apr-23 19:00N 34°13' E 132°16'0 0.0
2018-Apr-23 18:30N 34°13' E 132°16'0 0.1
2018-Apr-23 18:00N 34°13' E 132°16'0 0.0
2018-Apr-23 17:30N 34°13' E 132°16'0 0.0
2018-Apr-23 16:57N 34°13' E 132°16'0 0.0
2018-Apr-23 16:30N 34°13' E 132°16'0 0.1
2018-Apr-23 16:00N 34°13' E 132°16'0 0.0
2018-Apr-23 15:30N 34°13' E 132°16'0 0.0
2018-Apr-23 14:57N 34°13' E 132°16'0 0.1
2018-Apr-23 14:30N 34°13' E 132°16'0 0.0
2018-Apr-23 13:57N 34°13' E 132°16'0 0.1
2018-Apr-23 13:30N 34°13' E 132°16'0 0.0
2018-Apr-23 13:00N 34°13' E 132°16'0 0.0
2018-Apr-23 12:30N 34°13' E 132°16'0 0.0
2018-Apr-23 12:00N 34°13' E 132°16'0 0.0
2018-Apr-23 11:30N 34°13' E 132°16'0 0.0
2018-Apr-23 11:00N 34°13' E 132°16'0 0.0
2018-Apr-23 10:30N 34°13' E 132°16'0 0.0
2018-Apr-23 10:00N 34°13' E 132°16'0 0.0
2018-Apr-23 09:30N 34°13' E 132°16'0 0.0
2018-Apr-23 09:00N 34°13' E 132°16'0 0.0
2018-Apr-23 08:30N 34°13' E 132°16'0 0.0
2018-Apr-23 08:00N 34°13' E 132°16'0 0.0
2018-Apr-23 07:30N 34°13' E 132°16'0 0.0
2018-Apr-23 07:00N 34°13' E 132°16'0 0.0
2018-Apr-23 06:30N 34°13' E 132°16'0 0.1
2018-Apr-23 05:57N 34°13' E 132°16'0 0.1
2018-Apr-23 05:30N 34°13' E 132°16'0 0.0
2018-Apr-23 05:00N 34°13' E 132°16'0 0.1
2018-Apr-23 04:30N 34°13' E 132°16'0 0.0
2018-Apr-23 04:00N 34°13' E 132°16'0 0.0
2018-Apr-23 03:30N 34°13' E 132°16'0 0.0
2018-Apr-23 03:00N 34°13' E 132°16'0 0.0
2018-Apr-23 02:30N 34°13' E 132°16'0 0.0
2018-Apr-23 02:00N 34°13' E 132°16'0 0.0
2018-Apr-23 01:27N 34°13' E 132°16'0 0.0
2018-Apr-23 01:00N 34°13' E 132°16'0 0.0
2018-Apr-23 00:30N 34°13' E 132°16'0 0.0
2018-Apr-23 00:00N 34°13' E 132°16'0 0.0
2018-Apr-22 23:30N 34°13' E 132°16'0 0.1
2018-Apr-22 22:57N 34°13' E 132°16'0 0.0
2018-Apr-22 22:30N 34°13' E 132°16'0 0.0
2018-Apr-22 22:00N 34°13' E 132°16'0 0.0
2018-Apr-22 21:30N 34°13' E 132°16'0 0.0
2018-Apr-22 21:00N 34°13' E 132°16'0 0.0
2018-Apr-22 20:30N 34°13' E 132°16'0 0.0
2018-Apr-22 20:00N 34°13' E 132°16'0 0.0
2018-Apr-22 19:27N 34°13' E 132°16'0 0.0
2018-Apr-22 19:00N 34°13' E 132°16'0 0.0
2018-Apr-22 18:30N 34°13' E 132°16'0 0.0
2018-Apr-22 18:00N 34°13' E 132°16'0 0.1
2018-Apr-22 17:27N 34°13' E 132°16'0 0.0
2018-Apr-22 17:00N 34°13' E 132°16'0 0.0
2018-Apr-22 16:30N 34°13' E 132°16'0 0.1
2018-Apr-22 16:00N 34°13' E 132°16'0 0.1
2018-Apr-22 15:24N 34°13' E 132°16'0 0.1
2018-Apr-22 14:48N 34°13' E 132°16'0 0.0
2018-Apr-22 14:30N 34°13' E 132°16'0 0.0
2018-Apr-22 14:00N 34°13' E 132°16'0 0.0
2018-Apr-22 13:27N 34°13' E 132°16'0 0.0
2018-Apr-22 13:00N 34°13' E 132°16'0 0.1
2018-Apr-22 12:30N 34°13' E 132°16'0 0.0
2018-Apr-22 12:00N 34°13' E 132°16'0 0.0
2018-Apr-22 11:30N 34°13' E 132°16'0 0.0
2018-Apr-22 11:00N 34°13' E 132°16'0 0.0
2018-Apr-22 10:30N 34°13' E 132°16'0 0.0
2018-Apr-22 09:57N 34°13' E 132°16'0 0.0
2018-Apr-22 09:30N 34°13' E 132°16'0 0.0
2018-Apr-22 09:00N 34°13' E 132°16'0 0.0
2018-Apr-22 08:30N 34°13' E 132°16'0 0.0
2018-Apr-22 08:00N 34°13' E 132°16'0 0.0
2018-Apr-22 07:27N 34°13' E 132°16'0 0.0
2018-Apr-22 07:00N 34°13' E 132°16'0 0.0
2018-Apr-22 06:30N 34°13' E 132°16'0 0.1
2018-Apr-22 05:57N 34°13' E 132°16'0 0.0
2018-Apr-22 05:30N 34°13' E 132°16'0 0.0
2018-Apr-22 05:00N 34°13' E 132°16'0 0.0
2018-Apr-22 04:24N 34°13' E 132°16'0 0.0
2018-Apr-22 04:00N 34°13' E 132°16'0 0.0
2018-Apr-22 03:30N 34°13' E 132°16'0 0.0
2018-Apr-22 03:00N 34°13' E 132°16'0 0.0
2018-Apr-22 02:30N 34°13' E 132°16'0 0.0
2018-Apr-22 02:00N 34°13' E 132°16'0 0.0
2018-Apr-22 01:27N 34°13' E 132°16'0 0.0
2018-Apr-22 00:57N 34°13' E 132°16'0 0.0
2018-Apr-22 00:27N 34°13' E 132°16'0 0.0
2018-Apr-22 00:00N 34°13' E 132°16'0 0.0
2018-Apr-21 23:30N 34°13' E 132°16'0 0.1
2018-Apr-21 22:57N 34°13' E 132°16'0 0.0
2018-Apr-21 22:30N 34°13' E 132°16'0 0.0
2018-Apr-21 22:00N 34°13' E 132°16'0 0.0
2018-Apr-21 21:30N 34°13' E 132°16'0 0.0
2018-Apr-21 21:00N 34°13' E 132°16'0 0.0
2018-Apr-21 20:30N 34°13' E 132°16'0 0.0
2018-Apr-21 20:00N 34°13' E 132°16'0 0.0
2018-Apr-21 19:30N 34°13' E 132°16'0 0.0
2018-Apr-21 19:00N 34°13' E 132°16'0 0.0
2018-Apr-21 18:30N 34°13' E 132°16'0 0.0
2018-Apr-21 18:00N 34°13' E 132°16'0 0.0
2018-Apr-21 17:30N 34°13' E 132°16'0 0.0
2018-Apr-21 17:00N 34°13' E 132°16'0 0.0
2018-Apr-21 16:30N 34°13' E 132°16'0 0.0
2018-Apr-21 15:54N 34°13' E 132°16'0 0.0
2018-Apr-21 15:30N 34°13' E 132°16'0 0.0
2018-Apr-21 14:57N 34°13' E 132°16'0 0.1
2018-Apr-21 14:30N 34°13' E 132°16'0 0.0
2018-Apr-21 13:54N 34°13' E 132°16'0 0.0
2018-Apr-21 13:30N 34°13' E 132°16'0 0.0
2018-Apr-21 13:00N 34°13' E 132°16'0 0.0
2018-Apr-21 12:30N 34°13' E 132°16'0 0.0
2018-Apr-21 12:00N 34°13' E 132°16'0 0.0
2018-Apr-21 11:30N 34°13' E 132°16'0 0.0
2018-Apr-21 10:51N 34°13' E 132°16'0 0.0
2018-Apr-21 10:18N 34°13' E 132°16'0 0.2
2018-Apr-21 10:00N 34°13' E 132°16'0 0.0
2018-Apr-21 09:30N 34°13' E 132°16'0 0.0
2018-Apr-21 09:00N 34°13' E 132°16'0 0.0
2018-Apr-21 08:30N 34°13' E 132°16'0 0.0
2018-Apr-21 08:00N 34°13' E 132°16'0 0.0
2018-Apr-21 07:27N 34°13' E 132°16'0 0.1
2018-Apr-21 07:00N 34°13' E 132°16'0 0.0
2018-Apr-21 06:24N 34°13' E 132°16'0 0.1
2018-Apr-21 05:54N 34°13' E 132°16'0 0.0
2018-Apr-21 05:30N 34°13' E 132°16'0 0.0
2018-Apr-21 04:57N 34°13' E 132°16'0 0.0
2018-Apr-21 04:30N 34°13' E 132°16'0 0.0
2018-Apr-21 03:57N 34°13' E 132°16'0 0.0
2018-Apr-21 03:21N 34°13' E 132°16'0 0.0
2018-Apr-21 03:00N 34°13' E 132°16'0 0.0
2018-Apr-21 02:30N 34°13' E 132°16'0 0.0
2018-Apr-21 01:54N 34°13' E 132°16'0 0.0
2018-Apr-21 01:30N 34°13' E 132°16'0 0.0
2018-Apr-21 01:00N 34°13' E 132°16'0 0.0
2018-Apr-21 00:30N 34°13' E 132°16'0 0.0
2018-Apr-21 00:00N 34°13' E 132°16'0 0.0
2018-Apr-20 23:30N 34°13' E 132°16'0 0.9
2018-Apr-20 23:00N 34°14' E 132°15'1 1.3
2018-Apr-20 22:25N 34°13' E 132°15'0 0.0
2018-Apr-20 21:55N 34°13' E 132°15'0 0.0
2018-Apr-20 21:28N 34°13' E 132°15'0 0.0
2018-Apr-20 20:58N 34°13' E 132°15'0 0.0
2018-Apr-20 20:28N 34°13' E 132°15'0 0.0
2018-Apr-20 19:55N 34°13' E 132°15'0 0.0
2018-Apr-20 19:25N 34°13' E 132°15'0 0.0
2018-Apr-20 18:52N 34°13' E 132°15'0 0.0
2018-Apr-20 18:25N 34°13' E 132°15'0 0.0
2018-Apr-20 17:55N 34°13' E 132°15'0 0.0
2018-Apr-20 17:25N 34°13' E 132°15'0 0.0
2018-Apr-20 16:58N 34°13' E 132°15'0 0.0
2018-Apr-20 16:25N 34°13' E 132°15'0 0.0
2018-Apr-20 15:58N 34°13' E 132°15'0 0.0
2018-Apr-20 15:28N 34°13' E 132°15'0 0.0
2018-Apr-20 14:58N 34°13' E 132°15'0 0.0
2018-Apr-20 14:28N 34°13' E 132°15'0 0.0
2018-Apr-20 13:58N 34°13' E 132°15'0 0.0
2018-Apr-20 13:25N 34°13' E 132°15'0 0.0
2018-Apr-20 12:58N 34°13' E 132°15'0 0.0
2018-Apr-20 12:28N 34°13' E 132°15'0 0.0
2018-Apr-20 11:55N 34°13' E 132°15'0 0.0
2018-Apr-20 11:25N 34°13' E 132°15'0 0.0
2018-Apr-20 10:49N 34°13' E 132°15'0 0.0
2018-Apr-20 09:43N 34°13' E 132°15'0 0.0
2018-Apr-20 05:31N 34°13' E 132°15'0 0.0
2018-Apr-20 04:31N 34°13' E 132°15'0 0.0
2018-Apr-20 04:25N 34°13' E 132°15'0 0.0
2018-Apr-20 03:55N 34°13' E 132°15'0 0.0
2018-Apr-20 03:25N 34°13' E 132°15'0 0.0
2018-Apr-20 02:25N 34°13' E 132°15'0 0.0
2018-Apr-20 01:55N 34°13' E 132°15'0 0.0
2018-Apr-20 01:25N 34°13' E 132°15'0 0.0
2018-Apr-20 00:55N 34°13' E 132°15'0 0.0
2018-Apr-20 00:22N 34°13' E 132°15'0 0.0
2018-Apr-19 23:49N 34°13' E 132°15'0 0.0
2018-Apr-19 23:28N 34°13' E 132°15'0 0.0
2018-Apr-19 23:01N 34°13' E 132°15'1 1.8
2018-Apr-19 22:30N 34°13' E 132°16'0 0.0
2018-Apr-19 22:00N 34°13' E 132°16'0 0.0
2018-Apr-19 21:30N 34°13' E 132°16'0 0.0
2018-Apr-19 21:00N 34°13' E 132°16'0 0.0
2018-Apr-19 20:30N 34°13' E 132°16'0 0.0
2018-Apr-19 19:57N 34°13' E 132°16'0 0.0
2018-Apr-19 19:30N 34°13' E 132°16'0 0.0
2018-Apr-19 19:00N 34°13' E 132°16'0 0.0
2018-Apr-19 18:30N 34°13' E 132°16'0 0.0
2018-Apr-19 18:00N 34°13' E 132°16'0 0.0
2018-Apr-19 17:30N 34°13' E 132°16'0 0.0
2018-Apr-19 17:00N 34°13' E 132°16'0 0.0
2018-Apr-19 16:27N 34°13' E 132°16'0 0.0
2018-Apr-19 16:00N 34°13' E 132°16'0 0.0
2018-Apr-19 15:30N 34°13' E 132°16'0 0.1
2018-Apr-19 15:00N 34°13' E 132°16'0 0.1
2018-Apr-19 14:27N 34°13' E 132°16'0 0.0
2018-Apr-19 14:00N 34°13' E 132°16'0 0.1
2018-Apr-19 13:27N 34°13' E 132°16'0 0.0
2018-Apr-19 13:00N 34°13' E 132°16'0 0.0
2018-Apr-19 12:30N 34°13' E 132°16'0 0.0
2018-Apr-19 12:00N 34°13' E 132°16'0 0.0
2018-Apr-19 11:30N 34°13' E 132°16'0 0.0
2018-Apr-19 10:54N 34°13' E 132°16'0 0.0
2018-Apr-19 10:30N 34°13' E 132°16'0 0.1
2018-Apr-19 09:57N 34°13' E 132°16'0 0.0
2018-Apr-19 09:27N 34°13' E 132°16'0 0.0
2018-Apr-19 08:57N 34°13' E 132°16'0 0.0
2018-Apr-19 08:27N 34°13' E 132°16'0 0.0
2018-Apr-19 07:57N 34°13' E 132°16'0 0.0
2018-Apr-19 07:27N 34°13' E 132°16'0 0.0
2018-Apr-19 07:00N 34°13' E 132°16'0 0.0
2018-Apr-19 06:30N 34°13' E 132°16'0 0.0
2018-Apr-19 06:00N 34°13' E 132°16'0 0.0
2018-Apr-19 05:30N 34°13' E 132°16'0 0.0
2018-Apr-19 04:51N 34°13' E 132°16'0 0.2
2018-Apr-19 04:30N 34°13' E 132°16'0 0.1
2018-Apr-19 04:00N 34°13' E 132°16'0 0.1
2018-Apr-19 03:27N 34°13' E 132°16'0 0.1
2018-Apr-19 03:00N 34°13' E 132°16'0 0.1
2018-Apr-19 02:27N 34°13' E 132°16'0 0.0
2018-Apr-19 02:00N 34°13' E 132°16'0 0.0
2018-Apr-19 01:30N 34°13' E 132°16'0 0.0
2018-Apr-19 00:57N 34°13' E 132°16'0 0.0
2018-Apr-19 00:27N 34°13' E 132°16'0 0.0
2018-Apr-19 00:00N 34°13' E 132°16'0 0.1
2018-Apr-18 23:30N 34°13' E 132°16'0 0.0
2018-Apr-18 22:57N 34°13' E 132°16'0 0.1
2018-Apr-18 22:27N 34°13' E 132°16'0 0.0
2018-Apr-18 22:00N 34°13' E 132°16'0 0.0
2018-Apr-18 21:30N 34°13' E 132°16'0 0.0
2018-Apr-18 21:00N 34°13' E 132°16'0 0.0
2018-Apr-18 20:30N 34°13' E 132°16'0 0.0
2018-Apr-18 20:00N 34°13' E 132°16'0 0.0
2018-Apr-18 19:30N 34°13' E 132°16'0 0.0
2018-Apr-18 19:00N 34°13' E 132°16'0 0.0
2018-Apr-18 18:30N 34°13' E 132°16'0 0.0
2018-Apr-18 18:00N 34°13' E 132°16'0 0.0
2018-Apr-18 17:30N 34°13' E 132°16'0 0.0
2018-Apr-18 16:57N 34°13' E 132°16'0 0.0
2018-Apr-18 16:30N 34°13' E 132°16'0 0.0
2018-Apr-18 16:00N 34°13' E 132°16'0 0.0
2018-Apr-18 15:30N 34°13' E 132°16'0 0.0
2018-Apr-18 15:00N 34°13' E 132°16'0 0.0
2018-Apr-18 14:30N 34°13' E 132°16'0 0.1
2018-Apr-18 14:00N 34°13' E 132°16'0 0.1
2018-Apr-18 13:30N 34°13' E 132°16'0 0.1
2018-Apr-18 13:00N 34°13' E 132°16'0 0.0
2018-Apr-18 12:30N 34°13' E 132°16'0 0.0
2018-Apr-18 11:54N 34°13' E 132°16'0 0.0
2018-Apr-18 11:27N 34°13' E 132°16'0 0.0
2018-Apr-18 11:00N 34°13' E 132°16'0 0.0
2018-Apr-18 10:30N 34°13' E 132°16'0 0.0
2018-Apr-18 10:00N 34°13' E 132°16'0 0.1
2018-Apr-18 09:30N 34°13' E 132°16'0 0.0
2018-Apr-18 09:00N 34°13' E 132°16'0 0.0
2018-Apr-18 08:27N 34°13' E 132°16'0 0.0
2018-Apr-18 07:57N 34°13' E 132°16'0 0.1
2018-Apr-18 07:30N 34°13' E 132°16'0 0.1
2018-Apr-18 07:00N 34°13' E 132°16'0 0.1
2018-Apr-18 06:30N 34°13' E 132°16'  
Track history (hours):
 
Tides and Currents Weather Stations Pressure Air Temp Water Temp Dewpoint Dewpoint Depression Visibility Wind Speed Wind Dir Waves Ship Positions

Hikarimaru No.17

Last reported at 2018-Apr-28 06:02 UTC. Time now 2018-May-22 21:06 UTC.
Position N 34°07' E 132°45'.
Warning: this ship's position is 24 days out of date.

Length 105 m; draft 5.5 m.

Type: Tanker. MMSI: 431000984.

Date/timePositionNaut miles runAvg speedWind from/ knotsBaromVisibWave heightAir tempDewpointWater temp
2018-Apr-28 06:02N 34°07' E 132°45'312.1
2018-Apr-28 05:50N 34°06' E 132°43'412.4
2018-Apr-28 05:30N 34°04' E 132°38'612.3
2018-Apr-28 05:01N 34°02' E 132°31'713.1
2018-Apr-28 04:29N 34°07' E 132°25'4 0.8
2018-Apr-27 23:07N 34°11' E 132°26'0 2.4
2018-Apr-27 23:00N 34°11' E 132°26'5 9.4
2018-Apr-27 22:29N 34°06' E 132°26'3 0.5
2018-Apr-27 15:54N 34°05' E 132°29'2 0.5
2018-Apr-27 11:14N 34°03' E 132°30'3 9.3
2018-Apr-27 10:55N 34°03' E 132°34'511.4
2018-Apr-27 10:31N 34°03' E 132°40'9 0.8
2018-Apr-26 23:32N 34°03' E 132°50'0 5.5
2018-Apr-26 23:29N 34°03' E 132°50'3 3.7
2018-Apr-26 22:48N 34°05' E 132°52'7 0.4
2018-Apr-26 01:40N 34°05' E 132°43'212.3
2018-Apr-26 01:30N 34°04' E 132°40'612.2
2018-Apr-26 00:59N 34°02' E 132°33'611.7
2018-Apr-26 00:27N 34°05' E 132°26'613.2
2018-Apr-25 23:59N 34°08' E 132°20'612.3
2018-Apr-25 23:30N 34°13' E 132°16'0 0.5
2018-Apr-25 23:00N 34°13' E 132°16'0 0.0
2018-Apr-25 22:30N 34°13' E 132°16'0 0.0
2018-Apr-25 22:00N 34°13' E 132°16'0 0.0
2018-Apr-25 21:30N 34°13' E 132°16'0 0.0
2018-Apr-25 21:00N 34°13' E 132°16'0 0.0
2018-Apr-25 20:30N 34°13' E 132°16'0 0.0
2018-Apr-25 20:00N 34°13' E 132°16'0 0.0
2018-Apr-25 19:30N 34°13' E 132°16'0 0.0
2018-Apr-25 19:00N 34°13' E 132°16'0 0.0
2018-Apr-25 18:30N 34°13' E 132°16'0 0.0
2018-Apr-25 18:00N 34°13' E 132°16'0 0.0
2018-Apr-25 17:30N 34°13' E 132°16'0 0.1
2018-Apr-25 17:00N 34°13' E 132°16'0 0.0
2018-Apr-25 16:30N 34°13' E 132°16'0 0.0
2018-Apr-25 16:00N 34°13' E 132°16'0 0.0
2018-Apr-25 15:24N 34°13' E 132°16'0 0.0
2018-Apr-25 14:57N 34°13' E 132°16'0 0.0
2018-Apr-25 14:30N 34°13' E 132°16'0 0.0
2018-Apr-25 14:00N 34°13' E 132°16'0 0.0
2018-Apr-25 13:30N 34°13' E 132°16'0 0.0
2018-Apr-25 13:00N 34°13' E 132°16'0 0.0
2018-Apr-25 12:30N 34°13' E 132°16'0 0.0
2018-Apr-25 12:00N 34°13' E 132°16'0 0.0
2018-Apr-25 11:30N 34°13' E 132°16'0 0.0
2018-Apr-25 10:54N 34°13' E 132°16'0 0.0
2018-Apr-25 10:27N 34°13' E 132°16'0 0.1
2018-Apr-25 10:00N 34°13' E 132°16'0 0.0
2018-Apr-25 09:30N 34°13' E 132°16'0 0.0
2018-Apr-25 09:00N 34°13' E 132°16'0 0.0
2018-Apr-25 08:30N 34°13' E 132°16'0 0.0
2018-Apr-25 08:00N 34°13' E 132°16'0 0.0
2018-Apr-25 07:30N 34°13' E 132°16'0 0.0
2018-Apr-25 07:00N 34°13' E 132°16'0 0.0
2018-Apr-25 06:30N 34°13' E 132°16'0 0.0
2018-Apr-25 06:00N 34°13' E 132°16'0 0.0
2018-Apr-25 05:30N 34°13' E 132°16'0 0.1
2018-Apr-25 05:00N 34°13' E 132°16'0 0.1
2018-Apr-25 04:30N 34°13' E 132°16'0 0.2
2018-Apr-25 03:57N 34°13' E 132°16'0 0.0
2018-Apr-25 03:30N 34°13' E 132°16'0 0.0
2018-Apr-25 02:54N 34°13' E 132°16'0 0.1
2018-Apr-25 02:30N 34°13' E 132°16'0 0.0
2018-Apr-25 01:54N 34°13' E 132°16'0 0.1
2018-Apr-25 01:27N 34°13' E 132°16'0 0.0
2018-Apr-25 01:00N 34°13' E 132°16'0 0.0
2018-Apr-25 00:30N 34°13' E 132°16'0 0.0
2018-Apr-25 00:00N 34°13' E 132°16'0 0.0
2018-Apr-24 23:24N 34°13' E 132°16'0 0.0
2018-Apr-24 22:54N 34°13' E 132°16'0 0.1
2018-Apr-24 22:30N 34°13' E 132°16'0 0.0
2018-Apr-24 22:00N 34°13' E 132°16'0 0.0
2018-Apr-24 21:30N 34°13' E 132°16'0 0.0
2018-Apr-24 21:00N 34°13' E 132°16'0 0.0
2018-Apr-24 20:30N 34°13' E 132°16'0 0.0
2018-Apr-24 20:00N 34°13' E 132°16'0 0.0
2018-Apr-24 19:30N 34°13' E 132°16'0 0.0
2018-Apr-24 19:00N 34°13' E 132°16'0 0.1
2018-Apr-24 18:27N 34°13' E 132°16'0 0.0
2018-Apr-24 18:00N 34°13' E 132°16'0 0.0
2018-Apr-24 17:24N 34°13' E 132°16'0 0.0
2018-Apr-24 17:00N 34°13' E 132°16'0 0.0
2018-Apr-24 16:30N 34°13' E 132°16'0 0.0
2018-Apr-24 16:00N 34°13' E 132°16'0 0.1
2018-Apr-24 15:30N 34°13' E 132°16'0 0.0
2018-Apr-24 15:00N 34°13' E 132°16'0 0.1
2018-Apr-24 14:21N 34°13' E 132°16'0 0.1
2018-Apr-24 14:00N 34°13' E 132°16'0 0.1
2018-Apr-24 13:30N 34°13' E 132°16'0 0.0
2018-Apr-24 13:00N 34°13' E 132°16'0 0.1
2018-Apr-24 12:30N 34°13' E 132°16'0 0.0
2018-Apr-24 11:57N 34°13' E 132°16'0 0.1
2018-Apr-24 11:30N 34°13' E 132°16'0 0.1
2018-Apr-24 11:00N 34°13' E 132°16'0 0.0
2018-Apr-24 10:30N 34°13' E 132°16'0 0.1
2018-Apr-24 09:54N 34°13' E 132°16'0 0.0
2018-Apr-24 09:30N 34°13' E 132°16'0 0.0
2018-Apr-24 09:00N 34°13' E 132°16'0 0.0
2018-Apr-24 08:30N 34°13' E 132°16'0 0.0
2018-Apr-24 08:00N 34°13' E 132°16'0 0.1
2018-Apr-24 07:30N 34°13' E 132°16'0 0.0
2018-Apr-24 06:54N 34°13' E 132°16'0 0.0
2018-Apr-24 06:30N 34°13' E 132°16'0 0.0
2018-Apr-24 06:00N 34°13' E 132°16'0 0.2
2018-Apr-24 05:30N 34°13' E 132°16'0 0.0
2018-Apr-24 04:57N 34°13' E 132°16'0 0.0
2018-Apr-24 04:30N 34°13' E 132°16'0 0.0
2018-Apr-24 04:00N 34°13' E 132°16'0 0.0
2018-Apr-24 03:30N 34°13' E 132°16'0 0.0
2018-Apr-24 03:00N 34°13' E 132°16'0 0.0
2018-Apr-24 02:24N 34°13' E 132°16'0 0.0
2018-Apr-24 02:00N 34°13' E 132°16'0 0.0
2018-Apr-24 01:30N 34°13' E 132°16'0 0.0
2018-Apr-24 01:00N 34°13' E 132°16'0 0.0
2018-Apr-24 00:30N 34°13' E 132°16'0 0.0
2018-Apr-24 00:00N 34°13' E 132°16'0 0.0
2018-Apr-23 23:27N 34°13' E 132°16'0 0.0
2018-Apr-23 23:00N 34°13' E 132°16'0 0.0
2018-Apr-23 22:30N 34°13' E 132°16'0 0.0
2018-Apr-23 22:00N 34°13' E 132°16'0 0.0
2018-Apr-23 21:30N 34°13' E 132°16'0 0.0
2018-Apr-23 21:00N 34°13' E 132°16'0 0.0
2018-Apr-23 20:30N 34°13' E 132°16'0 0.0
2018-Apr-23 20:00N 34°13' E 132°16'0 0.0
2018-Apr-23 19:30N 34°13' E 132°16'0 0.1
2018-Apr-23 19:00N 34°13' E 132°16'0 0.0
2018-Apr-23 18:30N 34°13' E 132°16'0 0.1
2018-Apr-23 18:00N 34°13' E 132°16'0 0.0
2018-Apr-23 17:30N 34°13' E 132°16'0 0.0
2018-Apr-23 16:57N 34°13' E 132°16'0 0.0
2018-Apr-23 16:30N 34°13' E 132°16'0 0.1
2018-Apr-23 16:00N 34°13' E 132°16'0 0.0
2018-Apr-23 15:30N 34°13' E 132°16'0 0.0
2018-Apr-23 14:57N 34°13' E 132°16'0 0.1
2018-Apr-23 14:30N 34°13' E 132°16'0 0.0
2018-Apr-23 13:57N 34°13' E 132°16'0 0.1
2018-Apr-23 13:30N 34°13' E 132°16'0 0.0
2018-Apr-23 13:00N 34°13' E 132°16'0 0.0
2018-Apr-23 12:30N 34°13' E 132°16'0 0.0
2018-Apr-23 12:00N 34°13' E 132°16'0 0.0
2018-Apr-23 11:30N 34°13' E 132°16'0 0.0
2018-Apr-23 11:00N 34°13' E 132°16'0 0.0
2018-Apr-23 10:30N 34°13' E 132°16'0 0.0
2018-Apr-23 10:00N 34°13' E 132°16'0 0.0
2018-Apr-23 09:30N 34°13' E 132°16'0 0.0
2018-Apr-23 09:00N 34°13' E 132°16'0 0.0
2018-Apr-23 08:30N 34°13' E 132°16'0 0.0
2018-Apr-23 08:00N 34°13' E 132°16'0 0.0
2018-Apr-23 07:30N 34°13' E 132°16'0 0.0
2018-Apr-23 07:00N 34°13' E 132°16'0 0.0
2018-Apr-23 06:30N 34°13' E 132°16'0 0.1
2018-Apr-23 05:57N 34°13' E 132°16'0 0.1
2018-Apr-23 05:30N 34°13' E 132°16'0 0.0
2018-Apr-23 05:00N 34°13' E 132°16'0 0.1
2018-Apr-23 04:30N 34°13' E 132°16'0 0.0
2018-Apr-23 04:00N 34°13' E 132°16'0 0.0
2018-Apr-23 03:30N 34°13' E 132°16'0 0.0
2018-Apr-23 03:00N 34°13' E 132°16'0 0.0
2018-Apr-23 02:30N 34°13' E 132°16'0 0.0
2018-Apr-23 02:00N 34°13' E 132°16'0 0.0
2018-Apr-23 01:27N 34°13' E 132°16'0 0.0
2018-Apr-23 01:00N 34°13' E 132°16'0 0.0
2018-Apr-23 00:30N 34°13' E 132°16'0 0.0
2018-Apr-23 00:00N 34°13' E 132°16'0 0.0
2018-Apr-22 23:30N 34°13' E 132°16'0 0.1
2018-Apr-22 22:57N 34°13' E 132°16'0 0.0
2018-Apr-22 22:30N 34°13' E 132°16'0 0.0
2018-Apr-22 22:00N 34°13' E 132°16'0 0.0
2018-Apr-22 21:30N 34°13' E 132°16'0 0.0
2018-Apr-22 21:00N 34°13' E 132°16'0 0.0
2018-Apr-22 20:30N 34°13' E 132°16'0 0.0
2018-Apr-22 20:00N 34°13' E 132°16'0 0.0
2018-Apr-22 19:27N 34°13' E 132°16'0 0.0
2018-Apr-22 19:00N 34°13' E 132°16'0 0.0
2018-Apr-22 18:30N 34°13' E 132°16'0 0.0
2018-Apr-22 18:00N 34°13' E 132°16'0 0.1
2018-Apr-22 17:27N 34°13' E 132°16'0 0.0
2018-Apr-22 17:00N 34°13' E 132°16'0 0.0
2018-Apr-22 16:30N 34°13' E 132°16'0 0.1
2018-Apr-22 16:00N 34°13' E 132°16'0 0.1
2018-Apr-22 15:24N 34°13' E 132°16'0 0.1
2018-Apr-22 14:48N 34°13' E 132°16'0 0.0
2018-Apr-22 14:30N 34°13' E 132°16'0 0.0
2018-Apr-22 14:00N 34°13' E 132°16'0 0.0
2018-Apr-22 13:27N 34°13' E 132°16'0 0.0
2018-Apr-22 13:00N 34°13' E 132°16'0 0.1
2018-Apr-22 12:30N 34°13' E 132°16'0 0.0
2018-Apr-22 12:00N 34°13' E 132°16'0 0.0
2018-Apr-22 11:30N 34°13' E 132°16'0 0.0
2018-Apr-22 11:00N 34°13' E 132°16'0 0.0
2018-Apr-22 10:30N 34°13' E 132°16'0 0.0
2018-Apr-22 09:57N 34°13' E 132°16'0 0.0
2018-Apr-22 09:30N 34°13' E 132°16'0 0.0
2018-Apr-22 09:00N 34°13' E 132°16'0 0.0
2018-Apr-22 08:30N 34°13' E 132°16'0 0.0
2018-Apr-22 08:00N 34°13' E 132°16'0 0.0
2018-Apr-22 07:27N 34°13' E 132°16'0 0.0
2018-Apr-22 07:00N 34°13' E 132°16'0 0.0
2018-Apr-22 06:30N 34°13' E 132°16'0 0.1
2018-Apr-22 05:57N 34°13' E 132°16'0 0.0
2018-Apr-22 05:30N 34°13' E 132°16'0 0.0
2018-Apr-22 05:00N 34°13' E 132°16'0 0.0
2018-Apr-22 04:24N 34°13' E 132°16'0 0.0
2018-Apr-22 04:00N 34°13' E 132°16'0 0.0
2018-Apr-22 03:30N 34°13' E 132°16'0 0.0
2018-Apr-22 03:00N 34°13' E 132°16'0 0.0
2018-Apr-22 02:30N 34°13' E 132°16'0 0.0
2018-Apr-22 02:00N 34°13' E 132°16'0 0.0
2018-Apr-22 01:27N 34°13' E 132°16'0 0.0
2018-Apr-22 00:57N 34°13' E 132°16'0 0.0
2018-Apr-22 00:27N 34°13' E 132°16'0 0.0
2018-Apr-22 00:00N 34°13' E 132°16'0 0.0
2018-Apr-21 23:30N 34°13' E 132°16'0 0.1
2018-Apr-21 22:57N 34°13' E 132°16'0 0.0
2018-Apr-21 22:30N 34°13' E 132°16'0 0.0
2018-Apr-21 22:00N 34°13' E 132°16'0 0.0
2018-Apr-21 21:30N 34°13' E 132°16'0 0.0
2018-Apr-21 21:00N 34°13' E 132°16'0 0.0
2018-Apr-21 20:30N 34°13' E 132°16'0 0.0
2018-Apr-21 20:00N 34°13' E 132°16'0 0.0
2018-Apr-21 19:30N 34°13' E 132°16'0 0.0
2018-Apr-21 19:00N 34°13' E 132°16'0 0.0
2018-Apr-21 18:30N 34°13' E 132°16'0 0.0
2018-Apr-21 18:00N 34°13' E 132°16'0 0.0
2018-Apr-21 17:30N 34°13' E 132°16'0 0.0
2018-Apr-21 17:00N 34°13' E 132°16'0 0.0
2018-Apr-21 16:30N 34°13' E 132°16'0 0.0
2018-Apr-21 15:54N 34°13' E 132°16'0 0.0
2018-Apr-21 15:30N 34°13' E 132°16'0 0.0
2018-Apr-21 14:57N 34°13' E 132°16'0 0.1
2018-Apr-21 14:30N 34°13' E 132°16'0 0.0
2018-Apr-21 13:54N 34°13' E 132°16'0 0.0
2018-Apr-21 13:30N 34°13' E 132°16'0 0.0
2018-Apr-21 13:00N 34°13' E 132°16'0 0.0
2018-Apr-21 12:30N 34°13' E 132°16'0 0.0
2018-Apr-21 12:00N 34°13' E 132°16'0 0.0
2018-Apr-21 11:30N 34°13' E 132°16'0 0.0
2018-Apr-21 10:51N 34°13' E 132°16'0 0.0
2018-Apr-21 10:18N 34°13' E 132°16'0 0.2
2018-Apr-21 10:00N 34°13' E 132°16'0 0.0
2018-Apr-21 09:30N 34°13' E 132°16'0 0.0
2018-Apr-21 09:00N 34°13' E 132°16'0 0.0
2018-Apr-21 08:30N 34°13' E 132°16'0 0.0
2018-Apr-21 08:00N 34°13' E 132°16'0 0.0
2018-Apr-21 07:27N 34°13' E 132°16'0 0.1
2018-Apr-21 07:00N 34°13' E 132°16'0 0.0
2018-Apr-21 06:24N 34°13' E 132°16'0 0.1
2018-Apr-21 05:54N 34°13' E 132°16'0 0.0
2018-Apr-21 05:30N 34°13' E 132°16'0 0.0
2018-Apr-21 04:57N 34°13' E 132°16'0 0.0
2018-Apr-21 04:30N 34°13' E 132°16'0 0.0
2018-Apr-21 03:57N 34°13' E 132°16'0 0.0
2018-Apr-21 03:21N 34°13' E 132°16'0 0.0
2018-Apr-21 03:00N 34°13' E 132°16'0 0.0
2018-Apr-21 02:30N 34°13' E 132°16'0 0.0
2018-Apr-21 01:54N 34°13' E 132°16'0 0.0
2018-Apr-21 01:30N 34°13' E 132°16'0 0.0
2018-Apr-21 01:00N 34°13' E 132°16'0 0.0
2018-Apr-21 00:30N 34°13' E 132°16'0 0.0
2018-Apr-21 00:00N 34°13' E 132°16'0 0.0
2018-Apr-20 23:30N 34°13' E 132°16'0 0.9
2018-Apr-20 23:00N 34°14' E 132°15'1 1.3
2018-Apr-20 22:25N 34°13' E 132°15'0 0.0
2018-Apr-20 21:55N 34°13' E 132°15'0 0.0
2018-Apr-20 21:28N 34°13' E 132°15'0 0.0
2018-Apr-20 20:58N 34°13' E 132°15'0 0.0
2018-Apr-20 20:28N 34°13' E 132°15'0 0.0
2018-Apr-20 19:55N 34°13' E 132°15'0 0.0
2018-Apr-20 19:25N 34°13' E 132°15'0 0.0
2018-Apr-20 18:52N 34°13' E 132°15'0 0.0
2018-Apr-20 18:25N 34°13' E 132°15'0 0.0
2018-Apr-20 17:55N 34°13' E 132°15'0 0.0
2018-Apr-20 17:25N 34°13' E 132°15'0 0.0
2018-Apr-20 16:58N 34°13' E 132°15'0 0.0
2018-Apr-20 16:25N 34°13' E 132°15'0 0.0
2018-Apr-20 15:58N 34°13' E 132°15'0 0.0
2018-Apr-20 15:28N 34°13' E 132°15'0 0.0
2018-Apr-20 14:58N 34°13' E 132°15'0 0.0
2018-Apr-20 14:28N 34°13' E 132°15'0 0.0
2018-Apr-20 13:58N 34°13' E 132°15'0 0.0
2018-Apr-20 13:25N 34°13' E 132°15'0 0.0
2018-Apr-20 12:58N 34°13' E 132°15'0 0.0
2018-Apr-20 12:28N 34°13' E 132°15'0 0.0
2018-Apr-20 11:55N 34°13' E 132°15'0 0.0
2018-Apr-20 11:25N 34°13' E 132°15'0 0.0
2018-Apr-20 10:49N 34°13' E 132°15'0 0.0
2018-Apr-20 09:43N 34°13' E 132°15'0 0.0
2018-Apr-20 05:31N 34°13' E 132°15'0 0.0
2018-Apr-20 04:31N 34°13' E 132°15'0 0.0
2018-Apr-20 04:25N 34°13' E 132°15'0 0.0
2018-Apr-20 03:55N 34°13' E 132°15'0 0.0
2018-Apr-20 03:25N 34°13' E 132°15'0 0.0
2018-Apr-20 02:25N 34°13' E 132°15'0 0.0
2018-Apr-20 01:55N 34°13' E 132°15'0 0.0
2018-Apr-20 01:25N 34°13' E 132°15'0 0.0
2018-Apr-20 00:55N 34°13' E 132°15'0 0.0
2018-Apr-20 00:22N 34°13' E 132°15'0 0.0
2018-Apr-19 23:49N 34°13' E 132°15'0 0.0
2018-Apr-19 23:28N 34°13' E 132°15'0 0.0
2018-Apr-19 23:01N 34°13' E 132°15'1 1.8
2018-Apr-19 22:30N 34°13' E 132°16'0 0.0
2018-Apr-19 22:00N 34°13' E 132°16'0 0.0
2018-Apr-19 21:30N 34°13' E 132°16'0 0.0
2018-Apr-19 21:00N 34°13' E 132°16'0 0.0
2018-Apr-19 20:30N 34°13' E 132°16'0 0.0
2018-Apr-19 19:57N 34°13' E 132°16'0 0.0
2018-Apr-19 19:30N 34°13' E 132°16'0 0.0
2018-Apr-19 19:00N 34°13' E 132°16'0 0.0
2018-Apr-19 18:30N 34°13' E 132°16'0 0.0
2018-Apr-19 18:00N 34°13' E 132°16'0 0.0
2018-Apr-19 17:30N 34°13' E 132°16'0 0.0
2018-Apr-19 17:00N 34°13' E 132°16'0 0.0
2018-Apr-19 16:27N 34°13' E 132°16'0 0.0
2018-Apr-19 16:00N 34°13' E 132°16'0 0.0
2018-Apr-19 15:30N 34°13' E 132°16'0 0.1
2018-Apr-19 15:00N 34°13' E 132°16'0 0.1
2018-Apr-19 14:27N 34°13' E 132°16'0 0.0
2018-Apr-19 14:00N 34°13' E 132°16'0 0.1
2018-Apr-19 13:27N 34°13' E 132°16'0 0.0
2018-Apr-19 13:00N 34°13' E 132°16'0 0.0
2018-Apr-19 12:30N 34°13' E 132°16'0 0.0
2018-Apr-19 12:00N 34°13' E 132°16'0 0.0
2018-Apr-19 11:30N 34°13' E 132°16'0 0.0
2018-Apr-19 10:54N 34°13' E 132°16'0 0.0
2018-Apr-19 10:30N 34°13' E 132°16'0 0.1
2018-Apr-19 09:57N 34°13' E 132°16'0 0.0
2018-Apr-19 09:27N 34°13' E 132°16'0 0.0
2018-Apr-19 08:57N 34°13' E 132°16'0 0.0
2018-Apr-19 08:27N 34°13' E 132°16'0 0.0
2018-Apr-19 07:57N 34°13' E 132°16'0 0.0
2018-Apr-19 07:27N 34°13' E 132°16'0 0.0
2018-Apr-19 07:00N 34°13' E 132°16'0 0.0
2018-Apr-19 06:30N 34°13' E 132°16'0 0.0
2018-Apr-19 06:00N 34°13' E 132°16'0 0.0
2018-Apr-19 05:30N 34°13' E 132°16'0 0.0
2018-Apr-19 04:51N 34°13' E 132°16'0 0.2
2018-Apr-19 04:30N 34°13' E 132°16'0 0.1
2018-Apr-19 04:00N 34°13' E 132°16'0 0.1
2018-Apr-19 03:27N 34°13' E 132°16'0 0.1
2018-Apr-19 03:00N 34°13' E 132°16'0 0.1
2018-Apr-19 02:27N 34°13' E 132°16'0 0.0
2018-Apr-19 02:00N 34°13' E 132°16'0 0.0
2018-Apr-19 01:30N 34°13' E 132°16'0 0.0
2018-Apr-19 00:57N 34°13' E 132°16'0 0.0
2018-Apr-19 00:27N 34°13' E 132°16'0 0.0
2018-Apr-19 00:00N 34°13' E 132°16'0 0.1
2018-Apr-18 23:30N 34°13' E 132°16'0 0.0
2018-Apr-18 22:57N 34°13' E 132°16'0 0.1
2018-Apr-18 22:27N 34°13' E 132°16'0 0.0
2018-Apr-18 22:00N 34°13' E 132°16'0 0.0
2018-Apr-18 21:30N 34°13' E 132°16'0 0.0
2018-Apr-18 21:00N 34°13' E 132°16'0 0.0
2018-Apr-18 20:30N 34°13' E 132°16'0 0.0
2018-Apr-18 20:00N 34°13' E 132°16'0 0.0
2018-Apr-18 19:30N 34°13' E 132°16'0 0.0
2018-Apr-18 19:00N 34°13' E 132°16'0 0.0
2018-Apr-18 18:30N 34°13' E 132°16'0 0.0
2018-Apr-18 18:00N 34°13' E 132°16'0 0.0
2018-Apr-18 17:30N 34°13' E 132°16'0 0.0
2018-Apr-18 16:57N 34°13' E 132°16'0 0.0
2018-Apr-18 16:30N 34°13' E 132°16'0 0.0
2018-Apr-18 16:00N 34°13' E 132°16'0 0.0
2018-Apr-18 15:30N 34°13' E 132°16'0 0.0
2018-Apr-18 15:00N 34°13' E 132°16'0 0.0
2018-Apr-18 14:30N 34°13' E 132°16'0 0.1
2018-Apr-18 14:00N 34°13' E 132°16'0 0.1
2018-Apr-18 13:30N 34°13' E 132°16'0 0.1
2018-Apr-18 13:00N 34°13' E 132°16'0 0.0
2018-Apr-18 12:30N 34°13' E 132°16'0 0.0
2018-Apr-18 11:54N 34°13' E 132°16'0 0.0
2018-Apr-18 11:27N 34°13' E 132°16'0 0.0
2018-Apr-18 11:00N 34°13' E 132°16'0 0.0
2018-Apr-18 10:30N 34°13' E 132°16'0 0.0
2018-Apr-18 10:00N 34°13' E 132°16'0 0.1
2018-Apr-18 09:30N 34°13' E 132°16'0 0.0
2018-Apr-18 09:00N 34°13' E 132°16'0 0.0
2018-Apr-18 08:27N 34°13' E 132°16'0 0.0
2018-Apr-18 07:57N 34°13' E 132°16'0 0.1
2018-Apr-18 07:30N 34°13' E 132°16'0 0.1
2018-Apr-18 07:00N 34°13' E 132°16'0 0.1
2018-Apr-18 06:30N 34°13' E 132°16'  

Dump ship's entire track history